sensor_id;sensor_type;location;lat;lon;timestamp;P1;durP1;ratioP1;P2;durP2;ratioP2
2784;SDS011;57944;48.722;9.316;2024-02-26T00:00:56;4.93;;;2.10;;
2784;SDS011;57944;48.722;9.316;2024-02-26T00:03:27;4.37;;;2.50;;
2784;SDS011;57944;48.722;9.316;2024-02-26T00:05:59;3.40;;;2.33;;
2784;SDS011;57944;48.722;9.316;2024-02-26T00:08:32;4.10;;;2.40;;
2784;SDS011;57944;48.722;9.316;2024-02-26T00:11:03;3.90;;;2.80;;
2784;SDS011;57944;48.722;9.316;2024-02-26T00:13:33;5.70;;;3.50;;
2784;SDS011;57944;48.722;9.316;2024-02-26T00:16:03;5.43;;;2.83;;
2784;SDS011;57944;48.722;9.316;2024-02-26T00:18:34;3.97;;;2.37;;
2784;SDS011;57944;48.722;9.316;2024-02-26T00:21:05;4.03;;;2.40;;
2784;SDS011;57944;48.722;9.316;2024-02-26T00:23:38;4.23;;;2.50;;
2784;SDS011;57944;48.722;9.316;2024-02-26T00:26:08;4.33;;;2.40;;
2784;SDS011;57944;48.722;9.316;2024-02-26T00:28:38;3.87;;;2.67;;
2784;SDS011;57944;48.722;9.316;2024-02-26T00:31:08;3.80;;;3.20;;
2784;SDS011;57944;48.722;9.316;2024-02-26T00:33:39;4.10;;;2.43;;
2784;SDS011;57944;48.722;9.316;2024-02-26T00:36:10;4.27;;;2.40;;
2784;SDS011;57944;48.722;9.316;2024-02-26T00:38:43;3.20;;;2.10;;
2784;SDS011;57944;48.722;9.316;2024-02-26T00:41:17;4.43;;;2.00;;
2784;SDS011;57944;48.722;9.316;2024-02-26T00:43:48;3.70;;;1.97;;
2784;SDS011;57944;48.722;9.316;2024-02-26T00:46:18;5.50;;;2.67;;
2784;SDS011;57944;48.722;9.316;2024-02-26T00:48:49;7.73;;;2.70;;
2784;SDS011;57944;48.722;9.316;2024-02-26T00:51:19;4.70;;;2.13;;
2784;SDS011;57944;48.722;9.316;2024-02-26T00:53:54;4.97;;;2.73;;
2784;SDS011;57944;48.722;9.316;2024-02-26T00:56:24;3.07;;;2.10;;
2784;SDS011;57944;48.722;9.316;2024-02-26T00:58:55;4.43;;;2.77;;
2784;SDS011;57944;48.722;9.316;2024-02-26T01:01:25;3.10;;;2.00;;
2784;SDS011;57944;48.722;9.316;2024-02-26T01:03:55;6.53;;;2.50;;
2784;SDS011;57944;48.722;9.316;2024-02-26T01:06:26;3.50;;;2.33;;
2784;SDS011;57944;48.722;9.316;2024-02-26T01:08:59;4.03;;;2.10;;
2784;SDS011;57944;48.722;9.316;2024-02-26T01:11:29;4.57;;;2.33;;
2784;SDS011;57944;48.722;9.316;2024-02-26T01:14:00;5.17;;;2.50;;
2784;SDS011;57944;48.722;9.316;2024-02-26T01:16:30;8.87;;;2.43;;
2784;SDS011;57944;48.722;9.316;2024-02-26T01:19:00;4.17;;;2.17;;
2784;SDS011;57944;48.722;9.316;2024-02-26T01:21:31;4.37;;;2.70;;
2784;SDS011;57944;48.722;9.316;2024-02-26T01:24:04;4.63;;;2.60;;
2784;SDS011;57944;48.722;9.316;2024-02-26T01:26:35;4.17;;;1.97;;
2784;SDS011;57944;48.722;9.316;2024-02-26T01:29:06;4.10;;;2.20;;
2784;SDS011;57944;48.722;9.316;2024-02-26T01:31:36;8.73;;;2.60;;
2784;SDS011;57944;48.722;9.316;2024-02-26T01:34:06;4.00;;;2.17;;
2784;SDS011;57944;48.722;9.316;2024-02-26T01:36:37;3.57;;;2.50;;
2784;SDS011;57944;48.722;9.316;2024-02-26T01:39:10;4.77;;;2.40;;
2784;SDS011;57944;48.722;9.316;2024-02-26T01:41:41;4.17;;;2.20;;
2784;SDS011;57944;48.722;9.316;2024-02-26T01:44:11;2.70;;;2.07;;
2784;SDS011;57944;48.722;9.316;2024-02-26T01:46:42;2.93;;;1.80;;
2784;SDS011;57944;48.722;9.316;2024-02-26T01:49:12;4.30;;;2.10;;
2784;SDS011;57944;48.722;9.316;2024-02-26T01:51:45;4.67;;;2.40;;
2784;SDS011;57944;48.722;9.316;2024-02-26T01:54:18;5.10;;;3.97;;
2784;SDS011;57944;48.722;9.316;2024-02-26T01:56:49;3.70;;;3.03;;
2784;SDS011;57944;48.722;9.316;2024-02-26T01:59:19;6.47;;;2.90;;
2784;SDS011;57944;48.722;9.316;2024-02-26T02:01:52;7.43;;;3.40;;
2784;SDS011;57944;48.722;9.316;2024-02-26T02:04:26;5.83;;;3.20;;
2784;SDS011;57944;48.722;9.316;2024-02-26T02:06:57;5.80;;;3.10;;
2784;SDS011;57944;48.722;9.316;2024-02-26T02:09:32;5.13;;;3.07;;
2784;SDS011;57944;48.722;9.316;2024-02-26T02:12:03;3.77;;;2.73;;
2784;SDS011;57944;48.722;9.316;2024-02-26T02:14:35;4.13;;;2.93;;
2784;SDS011;57944;48.722;9.316;2024-02-26T02:17:05;5.20;;;3.80;;
2784;SDS011;57944;48.722;9.316;2024-02-26T02:19:36;5.07;;;2.93;;
2784;SDS011;57944;48.722;9.316;2024-02-26T02:22:09;5.57;;;3.00;;
2784;SDS011;57944;48.722;9.316;2024-02-26T02:24:39;5.10;;;3.23;;
2784;SDS011;57944;48.722;9.316;2024-02-26T02:27:10;3.13;;;2.07;;
2784;SDS011;57944;48.722;9.316;2024-02-26T02:29:40;3.90;;;2.97;;
2784;SDS011;57944;48.722;9.316;2024-02-26T02:32:11;3.53;;;2.30;;
2784;SDS011;57944;48.722;9.316;2024-02-26T02:34:44;7.33;;;2.53;;
2784;SDS011;57944;48.722;9.316;2024-02-26T02:37:17;5.30;;;3.10;;
2784;SDS011;57944;48.722;9.316;2024-02-26T02:39:48;3.50;;;2.40;;
2784;SDS011;57944;48.722;9.316;2024-02-26T02:42:20;7.10;;;4.40;;
2784;SDS011;57944;48.722;9.316;2024-02-26T02:44:50;5.83;;;2.90;;
2784;SDS011;57944;48.722;9.316;2024-02-26T02:47:21;6.13;;;3.30;;
2784;SDS011;57944;48.722;9.316;2024-02-26T02:49:51;4.80;;;3.60;;
2784;SDS011;57944;48.722;9.316;2024-02-26T02:52:24;3.30;;;2.40;;
2784;SDS011;57944;48.722;9.316;2024-02-26T02:54:54;3.80;;;2.53;;
2784;SDS011;57944;48.722;9.316;2024-02-26T02:57:25;4.20;;;2.87;;
2784;SDS011;57944;48.722;9.316;2024-02-26T02:59:55;5.10;;;3.27;;
2784;SDS011;57944;48.722;9.316;2024-02-26T03:02:26;4.23;;;2.47;;
2784;SDS011;57944;48.722;9.316;2024-02-26T03:04:56;3.57;;;2.27;;
2784;SDS011;57944;48.722;9.316;2024-02-26T03:07:29;3.97;;;2.37;;
2784;SDS011;57944;48.722;9.316;2024-02-26T03:09:59;10.20;;;2.73;;
2784;SDS011;57944;48.722;9.316;2024-02-26T03:12:30;4.50;;;3.00;;
2784;SDS011;57944;48.722;9.316;2024-02-26T03:15:01;5.57;;;2.80;;
2784;SDS011;57944;48.722;9.316;2024-02-26T03:17:32;3.73;;;2.43;;
2784;SDS011;57944;48.722;9.316;2024-02-26T03:20:02;4.03;;;3.30;;
2784;SDS011;57944;48.722;9.316;2024-02-26T03:22:38;5.33;;;2.30;;
2784;SDS011;57944;48.722;9.316;2024-02-26T03:25:08;5.20;;;2.67;;
2784;SDS011;57944;48.722;9.316;2024-02-26T03:27:38;4.10;;;2.80;;
2784;SDS011;57944;48.722;9.316;2024-02-26T03:30:09;4.10;;;2.57;;
2784;SDS011;57944;48.722;9.316;2024-02-26T03:32:40;4.17;;;2.60;;
2784;SDS011;57944;48.722;9.316;2024-02-26T03:35:10;3.50;;;2.53;;
2784;SDS011;57944;48.722;9.316;2024-02-26T03:37:43;4.93;;;2.43;;
2784;SDS011;57944;48.722;9.316;2024-02-26T03:40:17;4.50;;;3.00;;
2784;SDS011;57944;48.722;9.316;2024-02-26T03:42:47;3.93;;;2.60;;
2784;SDS011;57944;48.722;9.316;2024-02-26T03:45:19;5.73;;;2.87;;
2784;SDS011;57944;48.722;9.316;2024-02-26T03:47:49;5.33;;;3.23;;
2784;SDS011;57944;48.722;9.316;2024-02-26T03:50:20;4.63;;;2.80;;
2784;SDS011;57944;48.722;9.316;2024-02-26T03:52:53;4.03;;;2.57;;
2784;SDS011;57944;48.722;9.316;2024-02-26T03:55:24;5.97;;;2.80;;
2784;SDS011;57944;48.722;9.316;2024-02-26T03:57:54;5.50;;;3.00;;
2784;SDS011;57944;48.722;9.316;2024-02-26T04:00:24;4.27;;;2.50;;
2784;SDS011;57944;48.722;9.316;2024-02-26T04:02:56;4.57;;;2.33;;
2784;SDS011;57944;48.722;9.316;2024-02-26T04:05:27;5.03;;;2.67;;
2784;SDS011;57944;48.722;9.316;2024-02-26T04:08:00;3.03;;;2.27;;
2784;SDS011;57944;48.722;9.316;2024-02-26T04:10:30;2.87;;;1.70;;
2784;SDS011;57944;48.722;9.316;2024-02-26T04:13:01;5.70;;;2.30;;
2784;SDS011;57944;48.722;9.316;2024-02-26T04:15:32;4.00;;;2.27;;
2784;SDS011;57944;48.722;9.316;2024-02-26T04:18:03;3.03;;;2.20;;
2784;SDS011;57944;48.722;9.316;2024-02-26T04:20:34;4.20;;;2.63;;
2784;SDS011;57944;48.722;9.316;2024-02-26T04:23:07;4.83;;;2.57;;
2784;SDS011;57944;48.722;9.316;2024-02-26T04:25:37;6.40;;;2.30;;
2784;SDS011;57944;48.722;9.316;2024-02-26T04:28:07;5.93;;;2.63;;
2784;SDS011;57944;48.722;9.316;2024-02-26T04:30:39;4.67;;;2.40;;
2784;SDS011;57944;48.722;9.316;2024-02-26T04:33:10;4.30;;;2.57;;
2784;SDS011;57944;48.722;9.316;2024-02-26T04:35:40;5.60;;;2.37;;
2784;SDS011;57944;48.722;9.316;2024-02-26T04:38:13;3.80;;;2.63;;
2784;SDS011;57944;48.722;9.316;2024-02-26T04:40:44;5.23;;;2.70;;
2784;SDS011;57944;48.722;9.316;2024-02-26T04:43:14;4.07;;;2.70;;
2784;SDS011;57944;48.722;9.316;2024-02-26T04:45:45;3.30;;;2.20;;
2784;SDS011;57944;48.722;9.316;2024-02-26T04:48:16;5.60;;;3.37;;
2784;SDS011;57944;48.722;9.316;2024-02-26T04:50:46;5.30;;;2.90;;
2784;SDS011;57944;48.722;9.316;2024-02-26T04:53:19;4.23;;;2.47;;
2784;SDS011;57944;48.722;9.316;2024-02-26T04:55:49;7.53;;;3.90;;
2784;SDS011;57944;48.722;9.316;2024-02-26T04:58:20;4.30;;;3.13;;
2784;SDS011;57944;48.722;9.316;2024-02-26T05:00:50;5.07;;;3.03;;
2784;SDS011;57944;48.722;9.316;2024-02-26T05:03:21;4.60;;;3.30;;
2784;SDS011;57944;48.722;9.316;2024-02-26T05:05:52;5.40;;;3.50;;
2784;SDS011;57944;48.722;9.316;2024-02-26T05:08:27;2.90;;;1.80;;
2784;SDS011;57944;48.722;9.316;2024-02-26T05:10:57;7.70;;;3.50;;
2784;SDS011;57944;48.722;9.316;2024-02-26T05:13:29;4.93;;;3.20;;
2784;SDS011;57944;48.722;9.316;2024-02-26T05:15:59;6.33;;;2.70;;
2784;SDS011;57944;48.722;9.316;2024-02-26T05:18:30;4.60;;;2.93;;
2784;SDS011;57944;48.722;9.316;2024-02-26T05:21:00;4.67;;;3.10;;
2784;SDS011;57944;48.722;9.316;2024-02-26T05:23:34;4.03;;;2.57;;
2784;SDS011;57944;48.722;9.316;2024-02-26T05:26:04;5.80;;;3.80;;
2784;SDS011;57944;48.722;9.316;2024-02-26T05:28:34;7.60;;;4.20;;
2784;SDS011;57944;48.722;9.316;2024-02-26T05:31:06;6.00;;;3.20;;
2784;SDS011;57944;48.722;9.316;2024-02-26T05:33:36;4.60;;;2.87;;
2784;SDS011;57944;48.722;9.316;2024-02-26T05:36:06;3.97;;;2.90;;
2784;SDS011;57944;48.722;9.316;2024-02-26T05:38:40;6.20;;;2.90;;
2784;SDS011;57944;48.722;9.316;2024-02-26T05:41:13;5.97;;;3.10;;
2784;SDS011;57944;48.722;9.316;2024-02-26T05:43:49;6.20;;;4.00;;
2784;SDS011;57944;48.722;9.316;2024-02-26T05:46:20;7.07;;;4.57;;
2784;SDS011;57944;48.722;9.316;2024-02-26T05:48:52;6.37;;;4.47;;
2784;SDS011;57944;48.722;9.316;2024-02-26T05:51:22;7.23;;;4.07;;
2784;SDS011;57944;48.722;9.316;2024-02-26T05:53:55;4.40;;;3.50;;
2784;SDS011;57944;48.722;9.316;2024-02-26T05:56:26;5.30;;;3.97;;
2784;SDS011;57944;48.722;9.316;2024-02-26T05:58:56;6.90;;;4.27;;
2784;SDS011;57944;48.722;9.316;2024-02-26T06:01:26;10.20;;;8.33;;
2784;SDS011;57944;48.722;9.316;2024-02-26T06:53:59;8.03;;;5.07;;
2784;SDS011;57944;48.722;9.316;2024-02-26T06:56:30;7.37;;;4.27;;
2784;SDS011;57944;48.722;9.316;2024-02-26T06:59:00;6.57;;;4.70;;
2784;SDS011;57944;48.722;9.316;2024-02-26T07:01:30;8.23;;;5.77;;
2784;SDS011;57944;48.722;9.316;2024-02-26T07:04:01;7.60;;;5.03;;
2784;SDS011;57944;48.722;9.316;2024-02-26T07:06:31;9.50;;;4.60;;
2784;SDS011;57944;48.722;9.316;2024-02-26T07:09:04;8.23;;;4.80;;
2784;SDS011;57944;48.722;9.316;2024-02-26T07:11:35;7.50;;;4.80;;
2784;SDS011;57944;48.722;9.316;2024-02-26T07:14:08;9.03;;;5.63;;
2784;SDS011;57944;48.722;9.316;2024-02-26T07:16:39;6.87;;;5.33;;
2784;SDS011;57944;48.722;9.316;2024-02-26T07:19:09;9.67;;;6.33;;
2784;SDS011;57944;48.722;9.316;2024-02-26T07:21:39;9.30;;;5.53;;
2784;SDS011;57944;48.722;9.316;2024-02-26T07:24:12;13.13;;;6.80;;
2784;SDS011;57944;48.722;9.316;2024-02-26T07:26:43;9.67;;;5.90;;
2784;SDS011;57944;48.722;9.316;2024-02-26T07:29:13;9.40;;;4.80;;
2784;SDS011;57944;48.722;9.316;2024-02-26T07:31:43;9.87;;;6.40;;
2784;SDS011;57944;48.722;9.316;2024-02-26T07:34:13;8.20;;;5.40;;
2784;SDS011;57944;48.722;9.316;2024-02-26T07:36:44;7.40;;;5.23;;
2784;SDS011;57944;48.722;9.316;2024-02-26T07:39:17;10.47;;;6.53;;
2784;SDS011;57944;48.722;9.316;2024-02-26T07:41:47;9.47;;;6.13;;
2784;SDS011;57944;48.722;9.316;2024-02-26T07:44:20;8.33;;;4.60;;
2784;SDS011;57944;48.722;9.316;2024-02-26T07:46:52;11.20;;;6.03;;
2784;SDS011;57944;48.722;9.316;2024-02-26T07:49:22;12.00;;;8.07;;
2784;SDS011;57944;48.722;9.316;2024-02-26T07:51:52;12.63;;;6.60;;
2784;SDS011;57944;48.722;9.316;2024-02-26T07:54:27;11.60;;;7.03;;
2784;SDS011;57944;48.722;9.316;2024-02-26T07:56:57;9.67;;;6.47;;
2784;SDS011;57944;48.722;9.316;2024-02-26T07:59:28;14.30;;;5.57;;
2784;SDS011;57944;48.722;9.316;2024-02-26T08:01:58;12.03;;;7.10;;
2784;SDS011;57944;48.722;9.316;2024-02-26T08:04:29;17.73;;;5.73;;
2784;SDS011;57944;48.722;9.316;2024-02-26T08:07:00;11.10;;;6.10;;
2784;SDS011;57944;48.722;9.316;2024-02-26T08:09:33;7.70;;;4.83;;
2784;SDS011;57944;48.722;9.316;2024-02-26T08:12:04;7.20;;;4.17;;
2784;SDS011;57944;48.722;9.316;2024-02-26T08:14:35;8.90;;;5.00;;
2784;SDS011;57944;48.722;9.316;2024-02-26T08:17:05;7.13;;;4.80;;
2784;SDS011;57944;48.722;9.316;2024-02-26T08:19:36;6.73;;;4.27;;
2784;SDS011;57944;48.722;9.316;2024-02-26T08:22:06;5.97;;;3.97;;
2784;SDS011;57944;48.722;9.316;2024-02-26T08:24:45;9.10;;;4.40;;
2784;SDS011;57944;48.722;9.316;2024-02-26T08:27:15;8.30;;;4.20;;
2784;SDS011;57944;48.722;9.316;2024-02-26T08:29:48;8.53;;;5.00;;
2784;SDS011;57944;48.722;9.316;2024-02-26T08:32:19;8.03;;;5.10;;
2784;SDS011;57944;48.722;9.316;2024-02-26T08:34:49;7.47;;;4.60;;
2784;SDS011;57944;48.722;9.316;2024-02-26T08:37:19;7.07;;;5.20;;
2784;SDS011;57944;48.722;9.316;2024-02-26T08:39:52;7.10;;;4.60;;
2784;SDS011;57944;48.722;9.316;2024-02-26T08:42:25;11.13;;;5.10;;
2784;SDS011;57944;48.722;9.316;2024-02-26T08:44:55;9.53;;;4.87;;
2784;SDS011;57944;48.722;9.316;2024-02-26T08:47:26;9.93;;;5.37;;
2784;SDS011;57944;48.722;9.316;2024-02-26T08:49:57;10.77;;;5.37;;
2784;SDS011;57944;48.722;9.316;2024-02-26T08:52:27;13.57;;;5.20;;
2784;SDS011;57944;48.722;9.316;2024-02-26T08:55:00;7.10;;;4.90;;
2784;SDS011;57944;48.722;9.316;2024-02-26T08:57:31;8.37;;;4.80;;
2784;SDS011;57944;48.722;9.316;2024-02-26T09:00:02;5.83;;;4.03;;
2784;SDS011;57944;48.722;9.316;2024-02-26T09:02:33;6.53;;;4.73;;
2784;SDS011;57944;48.722;9.316;2024-02-26T09:05:05;5.33;;;4.37;;
2784;SDS011;57944;48.722;9.316;2024-02-26T09:07:36;7.93;;;5.23;;
2784;SDS011;57944;48.722;9.316;2024-02-26T09:10:09;7.60;;;5.53;;
2784;SDS011;57944;48.722;9.316;2024-02-26T09:12:40;8.87;;;4.60;;
2784;SDS011;57944;48.722;9.316;2024-02-26T09:15:11;8.20;;;4.87;;
2784;SDS011;57944;48.722;9.316;2024-02-26T09:17:40;10.03;;;5.50;;
2784;SDS011;57944;48.722;9.316;2024-02-26T09:20:10;12.87;;;6.03;;
2784;SDS011;57944;48.722;9.316;2024-02-26T09:22:41;9.63;;;6.10;;
2784;SDS011;57944;48.722;9.316;2024-02-26T09:25:14;10.83;;;5.80;;
2784;SDS011;57944;48.722;9.316;2024-02-26T09:27:45;9.57;;;6.27;;
2784;SDS011;57944;48.722;9.316;2024-02-26T09:30:15;8.53;;;4.87;;
2784;SDS011;57944;48.722;9.316;2024-02-26T09:32:46;13.53;;;5.70;;
2784;SDS011;57944;48.722;9.316;2024-02-26T09:35:17;11.93;;;5.17;;
2784;SDS011;57944;48.722;9.316;2024-02-26T09:37:48;8.20;;;5.47;;
2784;SDS011;57944;48.722;9.316;2024-02-26T09:40:21;8.67;;;4.93;;
2784;SDS011;57944;48.722;9.316;2024-02-26T09:42:52;8.57;;;5.23;;
2784;SDS011;57944;48.722;9.316;2024-02-26T09:45:29;7.20;;;4.63;;
2784;SDS011;57944;48.722;9.316;2024-02-26T09:48:03;5.53;;;3.83;;
2784;SDS011;57944;48.722;9.316;2024-02-26T09:50:38;6.20;;;4.40;;
2784;SDS011;57944;48.722;9.316;2024-02-26T09:53:12;8.00;;;5.13;;
2784;SDS011;57944;48.722;9.316;2024-02-26T09:55:45;8.10;;;4.27;;
2784;SDS011;57944;48.722;9.316;2024-02-26T09:58:15;8.47;;;4.43;;
2784;SDS011;57944;48.722;9.316;2024-02-26T10:00:53;4.83;;;3.43;;
2784;SDS011;57944;48.722;9.316;2024-02-26T10:03:28;6.93;;;4.50;;
2784;SDS011;57944;48.722;9.316;2024-02-26T10:06:11;6.43;;;4.23;;
2784;SDS011;57944;48.722;9.316;2024-02-26T10:08:41;7.27;;;3.80;;
2784;SDS011;57944;48.722;9.316;2024-02-26T10:11:17;10.30;;;4.67;;
2784;SDS011;57944;48.722;9.316;2024-02-26T10:13:48;6.03;;;3.93;;
2784;SDS011;57944;48.722;9.316;2024-02-26T10:16:19;6.20;;;4.70;;
2784;SDS011;57944;48.722;9.316;2024-02-26T10:18:50;7.37;;;4.93;;
2784;SDS011;57944;48.722;9.316;2024-02-26T10:21:26;4.90;;;3.73;;
2784;SDS011;57944;48.722;9.316;2024-02-26T10:23:56;8.97;;;4.70;;
2784;SDS011;57944;48.722;9.316;2024-02-26T10:26:29;6.47;;;4.10;;
2784;SDS011;57944;48.722;9.316;2024-02-26T10:29:00;7.00;;;4.37;;
2784;SDS011;57944;48.722;9.316;2024-02-26T10:31:31;5.00;;;3.40;;
2784;SDS011;57944;48.722;9.316;2024-02-26T10:34:01;8.37;;;3.80;;
2784;SDS011;57944;48.722;9.316;2024-02-26T10:36:33;5.70;;;3.83;;
2784;SDS011;57944;48.722;9.316;2024-02-26T10:39:17;7.30;;;3.40;;
2784;SDS011;57944;48.722;9.316;2024-02-26T10:41:51;5.20;;;3.40;;
2784;SDS011;57944;48.722;9.316;2024-02-26T10:44:21;6.53;;;3.80;;
2784;SDS011;57944;48.722;9.316;2024-02-26T10:46:52;4.33;;;2.87;;
2784;SDS011;57944;48.722;9.316;2024-02-26T10:49:22;4.80;;;3.33;;
2784;SDS011;57944;48.722;9.316;2024-02-26T10:51:54;4.40;;;3.03;;
2784;SDS011;57944;48.722;9.316;2024-02-26T10:54:26;4.70;;;3.57;;
2784;SDS011;57944;48.722;9.316;2024-02-26T10:57:01;4.20;;;3.10;;
2784;SDS011;57944;48.722;9.316;2024-02-26T10:59:34;3.90;;;2.43;;
2784;SDS011;57944;48.722;9.316;2024-02-26T11:02:07;6.60;;;4.10;;
2784;SDS011;57944;48.722;9.316;2024-02-26T11:04:39;4.90;;;3.20;;
2784;SDS011;57944;48.722;9.316;2024-02-26T11:07:10;5.90;;;3.10;;
2784;SDS011;57944;48.722;9.316;2024-02-26T11:09:42;7.37;;;3.60;;
2784;SDS011;57944;48.722;9.316;2024-02-26T11:12:21;7.60;;;3.30;;
2784;SDS011;57944;48.722;9.316;2024-02-26T11:14:53;6.67;;;2.90;;
2784;SDS011;57944;48.722;9.316;2024-02-26T11:17:27;4.67;;;3.27;;
2784;SDS011;57944;48.722;9.316;2024-02-26T11:20:00;5.60;;;2.90;;
2784;SDS011;57944;48.722;9.316;2024-02-26T11:22:32;7.10;;;3.50;;
2784;SDS011;57944;48.722;9.316;2024-02-26T11:25:03;8.07;;;2.93;;
2784;SDS011;57944;48.722;9.316;2024-02-26T11:27:38;4.10;;;2.60;;
2784;SDS011;57944;48.722;9.316;2024-02-26T11:30:18;4.70;;;3.00;;
2784;SDS011;57944;48.722;9.316;2024-02-26T11:32:50;6.97;;;2.90;;
2784;SDS011;57944;48.722;9.316;2024-02-26T11:35:22;4.50;;;3.20;;
2784;SDS011;57944;48.722;9.316;2024-02-26T11:37:53;5.13;;;3.17;;
2784;SDS011;57944;48.722;9.316;2024-02-26T11:40:27;9.40;;;3.67;;
2784;SDS011;57944;48.722;9.316;2024-02-26T11:43:03;4.70;;;3.53;;
2784;SDS011;57944;48.722;9.316;2024-02-26T11:48:25;7.83;;;3.13;;
2784;SDS011;57944;48.722;9.316;2024-02-26T11:50:58;4.53;;;2.80;;
2784;SDS011;57944;48.722;9.316;2024-02-26T11:53:30;7.23;;;3.60;;
2784;SDS011;57944;48.722;9.316;2024-02-26T11:56:19;5.93;;;2.67;;
2784;SDS011;57944;48.722;9.316;2024-02-26T11:59:04;7.73;;;3.10;;
2784;SDS011;57944;48.722;9.316;2024-02-26T12:01:40;5.80;;;3.23;;
2784;SDS011;57944;48.722;9.316;2024-02-26T12:04:16;8.80;;;5.20;;
2784;SDS011;57944;48.722;9.316;2024-02-26T12:06:50;6.73;;;3.77;;
2784;SDS011;57944;48.722;9.316;2024-02-26T12:09:33;5.20;;;2.90;;
2784;SDS011;57944;48.722;9.316;2024-02-26T12:12:06;3.83;;;2.70;;
2784;SDS011;57944;48.722;9.316;2024-02-26T12:14:50;4.50;;;2.87;;
2784;SDS011;57944;48.722;9.316;2024-02-26T12:17:22;8.13;;;3.00;;
2784;SDS011;57944;48.722;9.316;2024-02-26T12:19:55;4.50;;;2.60;;
2784;SDS011;57944;48.722;9.316;2024-02-26T12:22:37;4.77;;;3.07;;
2784;SDS011;57944;48.722;9.316;2024-02-26T12:25:09;5.40;;;2.80;;
2784;SDS011;57944;48.722;9.316;2024-02-26T12:27:39;4.17;;;2.20;;
2784;SDS011;57944;48.722;9.316;2024-02-26T12:30:13;6.40;;;2.37;;
2784;SDS011;57944;48.722;9.316;2024-02-26T12:32:44;3.77;;;2.40;;
2784;SDS011;57944;48.722;9.316;2024-02-26T12:35:16;3.50;;;2.00;;
2784;SDS011;57944;48.722;9.316;2024-02-26T12:37:47;3.17;;;1.73;;
2784;SDS011;57944;48.722;9.316;2024-02-26T12:40:18;3.73;;;1.83;;
2784;SDS011;57944;48.722;9.316;2024-02-26T12:42:49;3.97;;;2.20;;
2784;SDS011;57944;48.722;9.316;2024-02-26T12:45:24;4.30;;;2.20;;
2784;SDS011;57944;48.722;9.316;2024-02-26T12:47:55;5.93;;;2.63;;
2784;SDS011;57944;48.722;9.316;2024-02-26T12:50:26;3.90;;;2.13;;
2784;SDS011;57944;48.722;9.316;2024-02-26T12:52:58;4.43;;;2.47;;
2784;SDS011;57944;48.722;9.316;2024-02-26T12:55:29;3.47;;;2.10;;
2784;SDS011;57944;48.722;9.316;2024-02-26T12:58:01;3.57;;;2.07;;
2784;SDS011;57944;48.722;9.316;2024-02-26T13:00:34;3.90;;;2.00;;
2784;SDS011;57944;48.722;9.316;2024-02-26T13:03:05;4.90;;;2.10;;
2784;SDS011;57944;48.722;9.316;2024-02-26T13:05:37;7.20;;;2.10;;
2784;SDS011;57944;48.722;9.316;2024-02-26T13:08:07;10.70;;;2.50;;
2784;SDS011;57944;48.722;9.316;2024-02-26T13:10:38;5.60;;;1.97;;
2784;SDS011;57944;48.722;9.316;2024-02-26T13:13:09;8.23;;;2.30;;
2784;SDS011;57944;48.722;9.316;2024-02-26T13:15:42;6.17;;;2.40;;
2784;SDS011;57944;48.722;9.316;2024-02-26T13:18:13;3.40;;;1.73;;
2784;SDS011;57944;48.722;9.316;2024-02-26T13:20:44;3.17;;;1.87;;
2784;SDS011;57944;48.722;9.316;2024-02-26T13:23:15;4.97;;;2.03;;
2784;SDS011;57944;48.722;9.316;2024-02-26T13:25:46;3.50;;;1.90;;
2784;SDS011;57944;48.722;9.316;2024-02-26T13:28:18;4.93;;;1.50;;
2784;SDS011;57944;48.722;9.316;2024-02-26T13:30:53;3.00;;;1.70;;
2784;SDS011;57944;48.722;9.316;2024-02-26T13:33:27;2.73;;;1.60;;
2784;SDS011;57944;48.722;9.316;2024-02-26T13:35:59;4.77;;;1.27;;
2784;SDS011;57944;48.722;9.316;2024-02-26T13:38:30;2.83;;;1.33;;
2784;SDS011;57944;48.722;9.316;2024-02-26T13:41:00;3.83;;;1.50;;
2784;SDS011;57944;48.722;9.316;2024-02-26T13:43:31;4.37;;;1.70;;
2784;SDS011;57944;48.722;9.316;2024-02-26T13:46:05;4.53;;;1.37;;
2784;SDS011;57944;48.722;9.316;2024-02-26T13:48:37;4.87;;;1.30;;
2784;SDS011;57944;48.722;9.316;2024-02-26T13:51:08;3.00;;;1.37;;
2784;SDS011;57944;48.722;9.316;2024-02-26T13:53:39;3.57;;;1.37;;
2784;SDS011;57944;48.722;9.316;2024-02-26T13:56:09;6.53;;;1.73;;
2784;SDS011;57944;48.722;9.316;2024-02-26T13:58:40;3.47;;;1.40;;
2784;SDS011;57944;48.722;9.316;2024-02-26T14:01:13;3.37;;;1.60;;
2784;SDS011;57944;48.722;9.316;2024-02-26T14:03:44;4.33;;;2.17;;
2784;SDS011;57944;48.722;9.316;2024-02-26T14:06:15;5.37;;;1.83;;
2784;SDS011;57944;48.722;9.316;2024-02-26T14:08:46;4.23;;;1.67;;
2784;SDS011;57944;48.722;9.316;2024-02-26T14:11:17;8.17;;;2.33;;
2784;SDS011;57944;48.722;9.316;2024-02-26T14:13:47;5.90;;;2.40;;
2784;SDS011;57944;48.722;9.316;2024-02-26T14:16:21;4.90;;;2.60;;
2784;SDS011;57944;48.722;9.316;2024-02-26T14:18:52;5.23;;;2.40;;
2784;SDS011;57944;48.722;9.316;2024-02-26T14:21:23;3.73;;;2.20;;
2784;SDS011;57944;48.722;9.316;2024-02-26T14:23:54;5.37;;;2.10;;
2784;SDS011;57944;48.722;9.316;2024-02-26T14:26:25;8.43;;;2.27;;
2784;SDS011;57944;48.722;9.316;2024-02-26T14:28:55;3.70;;;2.03;;
2784;SDS011;57944;48.722;9.316;2024-02-26T14:31:28;4.03;;;1.80;;
2784;SDS011;57944;48.722;9.316;2024-02-26T14:33:59;4.13;;;1.80;;
2784;SDS011;57944;48.722;9.316;2024-02-26T14:36:30;5.23;;;2.90;;
2784;SDS011;57944;48.722;9.316;2024-02-26T14:39:01;4.03;;;1.87;;
2784;SDS011;57944;48.722;9.316;2024-02-26T14:41:32;3.20;;;1.77;;
2784;SDS011;57944;48.722;9.316;2024-02-26T14:44:03;9.23;;;1.70;;
2784;SDS011;57944;48.722;9.316;2024-02-26T14:46:36;3.90;;;2.40;;
2784;SDS011;57944;48.722;9.316;2024-02-26T14:49:06;4.50;;;1.97;;
2784;SDS011;57944;48.722;9.316;2024-02-26T14:51:40;3.70;;;1.47;;
2784;SDS011;57944;48.722;9.316;2024-02-26T14:54:10;3.87;;;2.03;;
2784;SDS011;57944;48.722;9.316;2024-02-26T14:56:41;5.20;;;2.50;;
2784;SDS011;57944;48.722;9.316;2024-02-26T14:59:12;4.20;;;2.67;;
2784;SDS011;57944;48.722;9.316;2024-02-26T15:01:45;3.30;;;1.60;;
2784;SDS011;57944;48.722;9.316;2024-02-26T15:04:16;3.87;;;1.83;;
2784;SDS011;57944;48.722;9.316;2024-02-26T15:06:46;4.50;;;1.97;;
2784;SDS011;57944;48.722;9.316;2024-02-26T15:09:17;3.13;;;1.53;;
2784;SDS011;57944;48.722;9.316;2024-02-26T15:11:48;3.77;;;2.17;;
2784;SDS011;57944;48.722;9.316;2024-02-26T15:14:18;3.77;;;1.70;;
2784;SDS011;57944;48.722;9.316;2024-02-26T15:16:53;3.10;;;1.60;;
2784;SDS011;57944;48.722;9.316;2024-02-26T15:19:23;6.30;;;1.87;;
2784;SDS011;57944;48.722;9.316;2024-02-26T15:21:54;3.87;;;1.83;;
2784;SDS011;57944;48.722;9.316;2024-02-26T15:24:25;3.20;;;1.63;;
2784;SDS011;57944;48.722;9.316;2024-02-26T15:26:54;4.97;;;2.17;;
2784;SDS011;57944;48.722;9.316;2024-02-26T15:29:25;5.00;;;1.83;;
2784;SDS011;57944;48.722;9.316;2024-02-26T15:31:58;3.93;;;1.93;;
2784;SDS011;57944;48.722;9.316;2024-02-26T15:34:28;5.57;;;2.90;;
2784;SDS011;57944;48.722;9.316;2024-02-26T15:36:59;4.40;;;2.80;;
2784;SDS011;57944;48.722;9.316;2024-02-26T15:39:30;8.50;;;3.70;;
2784;SDS011;57944;48.722;9.316;2024-02-26T15:42:01;4.97;;;2.90;;
2784;SDS011;57944;48.722;9.316;2024-02-26T15:44:32;4.83;;;2.47;;
2784;SDS011;57944;48.722;9.316;2024-02-26T15:47:05;6.93;;;2.90;;
2784;SDS011;57944;48.722;9.316;2024-02-26T15:49:36;12.33;;;3.90;;
2784;SDS011;57944;48.722;9.316;2024-02-26T15:52:07;4.57;;;3.00;;
2784;SDS011;57944;48.722;9.316;2024-02-26T15:54:38;6.87;;;3.87;;
2784;SDS011;57944;48.722;9.316;2024-02-26T15:57:11;6.57;;;4.27;;
2784;SDS011;57944;48.722;9.316;2024-02-26T15:59:44;5.30;;;3.23;;
2784;SDS011;57944;48.722;9.316;2024-02-26T16:02:17;5.60;;;3.07;;
2784;SDS011;57944;48.722;9.316;2024-02-26T16:04:49;5.90;;;3.27;;
2784;SDS011;57944;48.722;9.316;2024-02-26T16:07:21;5.30;;;3.60;;
2784;SDS011;57944;48.722;9.316;2024-02-26T16:09:58;5.40;;;3.20;;
2784;SDS011;57944;48.722;9.316;2024-02-26T16:12:31;7.23;;;3.70;;
2784;SDS011;57944;48.722;9.316;2024-02-26T16:15:06;7.00;;;3.10;;
2784;SDS011;57944;48.722;9.316;2024-02-26T16:17:40;5.00;;;3.10;;
2784;SDS011;57944;48.722;9.316;2024-02-26T16:20:16;5.63;;;3.50;;